CO57 weather

Rhoads Heliport
Firestone, Colorado, United States

Public forecast

Using degrees Fahrenheit for public forecast. Weather courtesy of forecast.io.

METAR (pilot weather report)

Closest report is Erie Municipal Airport, 7.6 nm (14.0 km) SW. Retrieved 2019/08/19 22:30 UTC (14 minutes ago):

KEIK 192230Z AUTO 14006G14KT 100V160 10SM 37/M05 A3009 RMK AO2 T03661046

TAF (pilot weather forecast)

Closest forecast is Rocky Mountain Metropolitan Airport, 14.4 nm (26.7 km) SSW. Retrieved 2019/08/19 18:22 UTC (4 hours ago):

TAF KBJC 191720Z 1918/2018 05007KT P6SM FEW120 SCT220 FM200000 34007KT P6SM SCT120 BKN220 FM200600 30005KT P6SM FEW120 SCT220